createdAt,value
2022-12-01T00:01:47.390Z,3.78
2022-12-01T00:06:49.016Z,3.79
2022-12-01T00:11:50.537Z,3.75
2022-12-01T00:16:52.151Z,3.76
2022-12-01T00:21:53.835Z,3.79
2022-12-01T00:26:55.330Z,3.80
2022-12-01T00:31:56.866Z,3.80
2022-12-01T00:36:58.484Z,3.80
2022-12-01T00:42:00.038Z,3.75
2022-12-01T00:47:01.508Z,3.82
2022-12-01T00:52:03.022Z,3.77
2022-12-01T00:57:05.251Z,3.74
2022-12-01T01:02:07.879Z,3.70
2022-12-01T01:07:09.500Z,3.72
2022-12-01T01:12:11.030Z,3.71
2022-12-01T01:17:12.712Z,3.76
2022-12-01T01:22:14.204Z,3.74
2022-12-01T01:27:15.725Z,3.75
2022-12-01T01:32:17.288Z,3.72
2022-12-01T01:37:18.809Z,3.73
2022-12-01T01:42:20.842Z,3.73
2022-12-01T01:47:30.701Z,3.73
2022-12-01T01:52:40.593Z,3.76
2022-12-01T01:57:44.053Z,3.74
2022-12-01T02:02:47.200Z,3.75
2022-12-01T02:07:50.812Z,3.73
2022-12-01T02:13:14.948Z,3.73
2022-12-01T02:18:23.129Z,3.69
2022-12-01T02:24:02.210Z,3.75
2022-12-01T02:29:22.267Z,3.70
2022-12-01T02:34:42.662Z,3.69
2022-12-01T02:39:55.813Z,3.65
2022-12-01T02:44:59.146Z,3.64
2022-12-01T02:50:02.997Z,3.62
2022-12-01T02:55:04.672Z,3.58
2022-12-01T03:00:06.998Z,3.67
2022-12-01T03:05:21.344Z,3.62
2022-12-01T03:10:24.201Z,3.62
2022-12-01T03:15:50.173Z,3.62
2022-12-01T03:20:58.960Z,3.58
2022-12-01T03:26:03.495Z,3.60
2022-12-01T03:31:10.289Z,3.63
2022-12-01T03:36:40.986Z,3.68
2022-12-01T03:41:50.348Z,3.65
2022-12-01T03:46:56.385Z,3.74
2022-12-01T03:52:05.830Z,3.70
2022-12-01T03:57:11.500Z,3.72
2022-12-01T04:02:13.577Z,3.65
2022-12-01T04:07:15.317Z,3.65
2022-12-01T04:12:33.086Z,3.69
2022-12-01T04:17:34.794Z,3.64
2022-12-01T04:22:36.743Z,3.64
2022-12-01T04:27:38.634Z,3.63
2022-12-01T04:32:42.656Z,3.62
2022-12-01T04:37:44.183Z,3.59
2022-12-01T04:42:45.723Z,3.62
2022-12-01T04:47:47.223Z,3.49
2022-12-01T04:52:48.725Z,3.61
2022-12-01T04:57:50.143Z,3.58
2022-12-01T05:02:51.569Z,3.57
2022-12-01T05:07:53.131Z,3.58
2022-12-01T05:12:55.162Z,3.56
2022-12-01T05:17:56.666Z,3.53
2022-12-01T05:23:05.205Z,3.53
2022-12-01T05:28:07.517Z,3.58
2022-12-01T05:33:09.035Z,3.58
2022-12-01T05:38:10.673Z,3.55
2022-12-01T05:43:12.177Z,3.56
2022-12-01T05:48:13.836Z,3.50
2022-12-01T05:53:15.477Z,3.43
2022-12-01T05:58:16.917Z,3.40
2022-12-01T06:03:18.506Z,3.32
2022-12-01T06:08:20.099Z,3.29
2022-12-01T06:13:21.816Z,3.29
2022-12-01T06:18:24.154Z,3.27
2022-12-01T06:23:30.193Z,3.25
2022-12-01T06:28:32.227Z,3.26
2022-12-01T06:33:33.765Z,3.25
2022-12-01T06:38:36.935Z,3.26
2022-12-01T06:43:38.403Z,3.24
2022-12-01T06:48:39.929Z,3.27
2022-12-01T06:53:41.447Z,3.28
2022-12-01T06:58:42.939Z,3.30
2022-12-01T07:03:49.200Z,3.31
2022-12-01T07:08:50.657Z,3.27
2022-12-01T07:13:56.669Z,3.31
2022-12-01T07:18:59.927Z,3.29
2022-12-01T07:24:01.474Z,3.27
2022-12-01T07:29:03.245Z,3.25
2022-12-01T07:34:05.895Z,3.29
2022-12-01T07:39:08.544Z,3.31
2022-12-01T07:44:11.169Z,3.31
2022-12-01T07:49:15.044Z,3.32
2022-12-01T07:54:17.660Z,3.33
2022-12-01T07:59:19.096Z,3.38
2022-12-01T08:04:20.553Z,3.42
2022-12-01T08:09:22.095Z,3.48
2022-12-01T08:14:23.619Z,3.51
2022-12-01T08:19:25.869Z,3.54
2022-12-01T08:24:27.588Z,3.59
2022-12-01T08:29:29.134Z,3.62
2022-12-01T08:34:30.853Z,3.64
2022-12-01T08:39:32.367Z,3.64
2022-12-01T08:44:33.921Z,3.71
2022-12-01T08:49:35.474Z,3.75
2022-12-01T08:54:36.933Z,3.86
2022-12-01T08:59:38.742Z,3.96
2022-12-01T09:04:40.246Z,4.17
2022-12-01T09:09:42.513Z,4.23
2022-12-01T09:14:49.576Z,4.36
2022-12-01T09:19:52.415Z,4.41
2022-12-01T09:24:53.993Z,4.49
2022-12-01T09:29:55.448Z,4.60
2022-12-01T09:34:56.873Z,4.66
2022-12-01T09:39:58.301Z,4.77
2022-12-01T09:45:02.640Z,4.83
2022-12-01T09:50:13.212Z,4.90
2022-12-01T09:55:18.204Z,5.00
2022-12-01T10:00:23.220Z,5.10
2022-12-01T10:05:30.570Z,5.21
2022-12-01T10:10:40.495Z,5.38
2022-12-01T10:15:58.565Z,5.37
2022-12-01T10:21:22.104Z,5.43
2022-12-01T10:26:51.864Z,5.43
2022-12-01T10:31:54.767Z,5.42
2022-12-01T10:36:57.911Z,5.34
2022-12-01T10:42:25.797Z,5.37
2022-12-01T10:47:31.885Z,5.28
2022-12-01T10:52:40.048Z,5.11
2022-12-01T10:57:45.263Z,5.08
2022-12-01T11:02:47.298Z,4.92
2022-12-01T11:07:49.926Z,4.94
2022-12-01T11:13:22.452Z,4.86
2022-12-01T11:18:28.465Z,4.86
2022-12-01T11:23:30.208Z,4.79
2022-12-01T11:28:33.589Z,4.82
2022-12-01T11:33:54.914Z,5.00
2022-12-01T11:38:59.119Z,5.17
2022-12-01T11:44:06.255Z,5.24
2022-12-01T11:49:20.169Z,5.11
2022-12-01T11:54:26.460Z,5.10
2022-12-01T11:59:29.224Z,5.12
2022-12-01T12:05:28.135Z,5.09
2022-12-01T12:10:32.609Z,5.17
2022-12-01T12:15:58.687Z,5.18
2022-12-01T12:21:18.678Z,5.12
2022-12-01T12:26:39.521Z,5.03
2022-12-01T12:31:53.877Z,5.02
2022-12-01T12:37:03.245Z,5.00
2022-12-01T12:42:17.488Z,5.03
2022-12-01T12:47:26.553Z,4.94
2022-12-01T12:52:40.544Z,4.98
2022-12-01T12:57:53.894Z,5.04
2022-12-01T13:03:04.753Z,4.96
2022-12-01T13:08:12.929Z,4.92
2022-12-01T13:13:25.897Z,4.92
2022-12-01T13:18:40.691Z,4.90
2022-12-01T13:23:43.895Z,4.81
2022-12-01T13:28:51.715Z,4.74
2022-12-01T13:33:58.965Z,4.70
2022-12-01T13:39:05.910Z,4.73
2022-12-01T13:44:20.794Z,4.59
2022-12-01T13:49:42.016Z,4.56
2022-12-01T13:55:08.201Z,4.54
2022-12-01T14:00:22.004Z,4.44
2022-12-01T14:05:42.975Z,4.41
2022-12-01T14:10:52.833Z,4.37
2022-12-01T14:16:03.663Z,4.30
2022-12-01T14:21:09.383Z,4.24
2022-12-01T14:26:18.929Z,4.26
2022-12-01T14:31:20.898Z,4.22
2022-12-01T14:36:43.966Z,4.16
2022-12-01T14:41:59.750Z,4.16
2022-12-01T14:47:13.592Z,4.08
2022-12-01T14:52:35.766Z,4.01
2022-12-01T14:57:40.987Z,3.97
2022-12-01T15:02:46.815Z,3.99
2022-12-01T15:08:06.754Z,3.94
2022-12-01T15:13:30.789Z,3.90
2022-12-01T15:18:36.818Z,3.78
2022-12-01T15:24:02.411Z,3.82
2022-12-01T15:29:25.485Z,3.83
2022-12-01T15:34:41.387Z,3.77
2022-12-01T15:39:46.092Z,3.78
2022-12-01T15:45:16.845Z,3.76
2022-12-01T15:50:42.912Z,3.71
2022-12-01T15:55:54.147Z,3.69
2022-12-01T16:01:11.143Z,3.63
2022-12-01T16:06:13.066Z,3.62
2022-12-01T16:11:17.350Z,3.66
2022-12-01T16:16:46.282Z,3.62
2022-12-01T16:21:54.382Z,3.64
2022-12-01T16:27:15.477Z,3.60
2022-12-01T16:32:43.971Z,3.64
2022-12-01T16:37:45.510Z,3.68
2022-12-01T16:42:49.795Z,3.61
2022-12-01T16:47:51.261Z,3.67
2022-12-01T16:52:52.708Z,3.63
2022-12-01T16:57:55.341Z,3.67
2022-12-01T17:02:57.681Z,3.58
2022-12-01T17:08:00.001Z,3.70
2022-12-01T17:13:01.503Z,3.63
2022-12-01T17:18:03.069Z,3.61
2022-12-01T17:23:05.079Z,3.57
2022-12-01T17:28:06.535Z,3.57
2022-12-01T17:33:07.962Z,3.50
2022-12-01T17:38:09.511Z,3.44
2022-12-01T17:43:11.000Z,3.42
2022-12-01T17:48:12.485Z,3.40
2022-12-01T17:53:13.917Z,3.39
2022-12-01T17:58:18.062Z,3.38
2022-12-01T18:03:20.675Z,3.38
2022-12-01T18:08:22.239Z,3.40
2022-12-01T18:13:23.714Z,3.38
2022-12-01T18:18:25.366Z,3.39
2022-12-01T18:23:27.115Z,3.36
2022-12-01T18:28:28.579Z,3.39
2022-12-01T18:33:32.389Z,3.39
2022-12-01T18:38:33.883Z,3.36
2022-12-01T18:43:36.521Z,3.38
2022-12-01T18:48:38.181Z,3.38
2022-12-01T18:53:40.173Z,3.35
2022-12-01T18:58:41.747Z,3.39
2022-12-01T19:03:43.237Z,3.38
2022-12-01T19:08:44.936Z,3.32
2022-12-01T19:13:47.091Z,3.33
2022-12-01T19:18:48.936Z,3.32
2022-12-01T19:23:50.448Z,3.30
2022-12-01T19:28:52.214Z,3.26
2022-12-01T19:33:54.664Z,3.26
2022-12-01T19:38:57.862Z,3.27
2022-12-01T19:43:59.420Z,3.24
2022-12-01T19:49:01.946Z,3.26
2022-12-01T19:54:05.716Z,3.22
2022-12-01T19:59:07.969Z,3.20
2022-12-01T20:04:09.447Z,3.21
2022-12-01T20:09:11.022Z,3.26
2022-12-01T20:14:12.713Z,3.22
2022-12-01T20:19:14.317Z,3.21
2022-12-01T20:24:19.821Z,3.20
2022-12-01T20:29:26.403Z,3.22
2022-12-01T20:34:31.725Z,3.19
2022-12-01T20:39:35.281Z,3.20
2022-12-01T20:44:37.528Z,3.19
2022-12-01T20:49:39.299Z,3.17
2022-12-01T20:54:42.400Z,3.19
2022-12-01T20:59:43.852Z,3.22
2022-12-01T21:04:45.336Z,3.21
2022-12-01T21:09:46.794Z,3.19
2022-12-01T21:15:00.320Z,3.19
2022-12-01T21:20:08.573Z,3.17
2022-12-01T21:25:16.595Z,3.17
2022-12-01T21:30:26.303Z,3.19
2022-12-01T21:35:28.030Z,3.17
2022-12-01T21:40:30.469Z,3.14
2022-12-01T21:45:32.133Z,3.16
2022-12-01T21:50:33.786Z,3.12
2022-12-01T21:55:42.256Z,3.05
2022-12-01T22:00:45.539Z,3.03
2022-12-01T22:06:14.032Z,2.99
2022-12-01T22:11:18.615Z,3.05
2022-12-01T22:16:32.547Z,2.97
2022-12-01T22:21:44.876Z,2.95
2022-12-01T22:26:48.757Z,2.89
2022-12-01T22:31:50.641Z,2.83
2022-12-01T22:36:52.338Z,2.77
2022-12-01T22:41:59.560Z,2.80
2022-12-01T22:47:02.746Z,2.71
2022-12-01T22:52:18.979Z,2.69
2022-12-01T22:57:34.803Z,2.64
2022-12-01T23:02:36.292Z,2.66
2022-12-01T23:07:41.596Z,2.63
2022-12-01T23:12:44.852Z,2.64
2022-12-01T23:17:47.277Z,2.58
2022-12-01T23:22:48.896Z,2.60
2022-12-01T23:27:52.556Z,2.49
2022-12-01T23:33:05.939Z,2.58
2022-12-01T23:38:16.805Z,2.55
2022-12-01T23:43:24.813Z,2.48
2022-12-01T23:48:34.994Z,2.47
2022-12-01T23:53:39.370Z,2.47
2022-12-01T23:58:41.116Z,2.46
